KSZT

Details ICAO KSZT
Name Sandpoint
Region United States
Timezone America/Los_Angeles (UTC-8.0)
Plans Departing 4
Arriving 8
Stats Elevation 2,131 ft / 650 m (AMSL)
Location 48.299545° -116.560135°
Runways 1
Magnetic Variation 14.438° E
Sunrise 2017-12-10 15:28:02 UTC / 2017-12-10 07:28:02 Local
Sunset 2017-12-10 23:53:15 UTC / 2017-12-10 15:53:15 Local
Advertisement - Login to hide

Runways

ID Width Length Bearing (true) Bearing (mag) Surface Threshold Offset Overrun Length
01 75 ft / 23 m 5,496 ft / 1,675 m 32.04° 17.60° Asphalt 0 ft / 0 m 0 ft / 0 m
19 75 ft / 23 m 5,496 ft / 1,675 m 212.05° 197.61° Asphalt 0 ft / 0 m 0 ft / 0 m

Approach Navaids

Runway Type Ident Frequency Range Bearing (true) Bearing (mag) Slope Elevation
01 Localiser RPO 109.10 MHz 18 nm / 33 km 32.05° 17.61° - 2,131 ft / 650 m (AMSL)

Map

Weather


0- 5 10 15 20 25 30 35+ Temperature / ° C

Clouds and Precipitation
Forecast for 2017-12-11 06:00 UTC. Updated 2 hours ago

Ground ~20,000 ft ~40,000 ft Winds

METAR

KSZT 110255Z AUTO 00000KT 10SM CLR M05/M06 A3062 RMK AO2

TAF

Not found

Frequencies

Recorded 135.42 MHz AWOS 3
Unicom 122.70 MHz CTAF/UNICOM
Warning: Do not use this data for real-world aviation or navigation. No guarantee of current accuracy is given.